Kailua, HI (96734)

1:54 PM HST on May 30, 2015 (GMT -1000)
Kailua Beach | | Change Station
CLOSE
Current Station
Personal Weather Station
Location: Kailua, HI
Elevation: 10 ft
Nearby Weather Stations

Elev 10 ft 21.40 °N, 157.73 °W | Updated 6 minutes ago

Partly Cloudy
Partly Cloudy
78.9 °F
Feels Like 82 °F
N
4.0
Wind Variable Wind from ENE
Gusts 6.0 mph

Today
High -- | Low -- °F
--% Chance of Precip.
Yesterday
High -- | Low -- °F
Precip. -- in
5:48 AM 7:08 PM
Waxing Gibbous, 92% visible
Pressure 29.95 in
Visibility -9999.0 miles
Clouds Few 1900 ft
Heat Index 82 °F
Dew Point 73 °F
Humidity 83%
Rainfall 0.10 in
Snow Depth Not available.
UV 12 out of 12
Pollen Not available.
Air Quality Not available.
Flu Activity Local Activity
METAR PHNG 302257Z 05008KT FEW019 27/21 A2996 RMK AO2 SLP140 T02720206 $

More Conditions Fewer Conditions

Pressure 29.95 in
Visibility -9999.0 miles
Clouds Few 1900 ft
Heat Index 82 °F
Dew Point 73 °F
Humidity 83%
Rainfall 0.10 in
Snow Depth Not available.
UV 12 out of 12
Pollen Not available.
Air Quality Not available.
Flu Activity Local Activity
METAR PHNG 302257Z 05008KT FEW019 27/21 A2996 RMK AO2 SLP140 T02720206 $

More Conditions Fewer Conditions

10-Day Weather Forecast

Almanac

Astronomy

May. 30, 2015 Rise Set
Actual Time
Civil Twilight
Nautical Twilight
Astronomical Twilight
Moon
Length of Visible Light
Length of Day
Tomorrow will be .
, % of the Moon is Illuminated

Today's Extremes

State Highs State Lows

Community

WunderPhotos

Upload Photos

1,825,558 photos uploaded!

WunderBlogs® & News

Nearby

Air Quality

  Air Quality AQ Index Pollutant
Not available.

Snow Depth

Station Depth Elevation

Earthquake Activity

City Distance Mag. Time & Date
Minimum magnitude displayed is 2.5.

Coastal Water Temperatures

Place Temperature

Stations

Nearby Weather Stations

Station Location Temp. Windchill Dew Point Humidity Wind Precip. Elev Updated Type